createdAt,value
2022-11-20T00:00:56.748Z,-2.3
2022-11-20T00:05:05.962Z,-2.5
2022-11-20T00:07:08.910Z,-2.5
2022-11-20T00:09:11.832Z,-2.5
2022-11-20T00:11:16.314Z,-2.4
2022-11-20T00:13:17.708Z,-2.4
2022-11-20T00:15:20.611Z,-2.3
2022-11-20T00:17:26.871Z,-2.4
2022-11-20T00:19:29.782Z,-2.3
2022-11-20T00:21:32.737Z,-2.3
2022-11-20T00:23:35.651Z,-2.3
2022-11-20T00:25:38.576Z,-2.4
2022-11-20T00:27:41.520Z,-2.5
2022-11-20T00:31:50.684Z,-2.5
2022-11-20T00:33:53.595Z,-2.5
2022-11-20T00:35:56.530Z,-2.5
2022-11-20T00:36:59.657Z,-2.5
2022-11-20T00:39:02.587Z,-2.6
2022-11-20T00:41:05.510Z,-2.6
2022-11-20T00:43:08.404Z,-2.5
2022-11-20T00:45:14.682Z,-2.5
2022-11-20T00:47:17.611Z,-2.5
2022-11-20T00:49:20.748Z,-2.5
2022-11-20T00:51:23.439Z,-2.5
2022-11-20T00:53:26.363Z,-2.6
2022-11-20T00:55:29.282Z,-2.6
2022-11-20T00:59:38.482Z,-3
2022-11-20T01:01:41.374Z,-2.9
2022-11-20T01:05:47.239Z,-3
2022-11-20T01:07:50.141Z,-2.9
2022-11-20T01:09:53.038Z,-2.9
2022-11-20T01:16:05.149Z,-2.9
2022-11-20T01:18:08.076Z,-2.9
2022-11-20T01:20:10.960Z,-3
2022-11-20T01:22:13.902Z,-3
2022-11-20T01:24:16.780Z,-3
2022-11-20T01:26:19.704Z,-3
2022-11-20T01:28:25.939Z,-3.1
2022-11-20T01:30:28.859Z,-3.1
2022-11-20T01:32:31.767Z,-3
2022-11-20T01:33:34.862Z,-3
2022-11-20T01:35:37.783Z,-3.1
2022-11-20T01:37:40.684Z,-3.1
2022-11-20T01:39:43.587Z,-3.1
2022-11-20T01:41:49.842Z,-3.1
2022-11-20T01:43:52.771Z,-3.2
2022-11-20T01:45:55.675Z,-3.1
2022-11-20T01:47:58.558Z,-3.1
2022-11-20T01:50:01.502Z,-3.1
2022-11-20T01:52:04.387Z,-3
2022-11-20T01:54:07.305Z,-3
2022-11-20T01:56:13.551Z,-3
2022-11-20T01:58:16.456Z,-2.9
2022-11-20T02:00:19.349Z,-2.9
2022-11-20T02:02:22.267Z,-3
2022-11-20T02:04:25.154Z,-3.1
2022-11-20T02:06:28.061Z,-3
2022-11-20T02:08:30.979Z,-2.9
2022-11-20T02:10:37.222Z,-3
2022-11-20T02:12:40.109Z,-3
2022-11-20T02:14:42.998Z,-3
2022-11-20T02:16:45.895Z,-3
2022-11-20T02:18:48.802Z,-3
2022-11-20T02:20:51.707Z,-3.1
2022-11-20T02:22:54.590Z,-3
2022-11-20T02:25:00.841Z,-3.1
2022-11-20T02:27:03.733Z,-3
2022-11-20T02:29:06.612Z,-3.1
2022-11-20T02:30:09.732Z,-3.2
2022-11-20T02:34:15.548Z,-3.4
2022-11-20T02:36:18.427Z,-3.4
2022-11-20T02:38:24.669Z,-3.4
2022-11-20T02:40:27.553Z,-3.4
2022-11-20T02:42:30.451Z,-3.3
2022-11-20T02:44:33.347Z,-3.3
2022-11-20T02:46:36.267Z,-3.3
2022-11-20T02:52:49.867Z,-3.4
2022-11-20T02:56:55.584Z,-3.4
2022-11-20T02:58:58.470Z,-3.4
2022-11-20T03:01:01.410Z,-3.4
2022-11-20T03:03:04.259Z,-3.3
2022-11-20T03:05:07.152Z,-3.4
2022-11-20T03:07:13.474Z,-3.4
2022-11-20T03:09:16.266Z,-3.3
2022-11-20T03:11:19.149Z,-3.4
2022-11-20T03:13:22.041Z,-3.4
2022-11-20T03:15:24.922Z,-3.4
2022-11-20T03:17:27.813Z,-3.4
2022-11-20T03:19:30.702Z,-3.4
2022-11-20T03:21:36.929Z,-3.6
2022-11-20T03:23:39.799Z,-3.5
2022-11-20T03:25:42.681Z,-3.7
2022-11-20T03:28:00.751Z,-3.7
2022-11-20T03:30:03.660Z,-3.6
2022-11-20T03:32:06.531Z,-3.7
2022-11-20T03:34:12.760Z,-3.7
2022-11-20T03:46:30.038Z,-3.7
2022-11-20T03:48:36.281Z,-3.7
2022-11-20T03:50:39.145Z,-3.8
2022-11-20T03:56:47.791Z,-3.9
2022-11-20T04:00:53.536Z,-3.8
2022-11-20T04:02:59.763Z,-3.8
2022-11-20T04:05:02.623Z,-3.7
2022-11-20T04:07:05.535Z,-3.6
2022-11-20T04:09:08.395Z,-3.7
2022-11-20T04:11:11.270Z,-3.6
2022-11-20T04:13:14.158Z,-3.6
2022-11-20T04:15:17.009Z,-3.6
2022-11-20T04:17:23.246Z,-3.6
2022-11-20T04:19:26.114Z,-3.6
2022-11-20T04:21:28.960Z,-3.6
2022-11-20T04:22:32.095Z,-3.6
2022-11-20T04:24:34.968Z,-3.6
2022-11-20T04:26:37.833Z,-3.7
2022-11-20T04:28:40.706Z,-3.7
2022-11-20T04:30:46.912Z,-3.7
2022-11-20T04:32:49.805Z,-3.6
2022-11-20T04:34:52.668Z,-3.6
2022-11-20T04:36:55.533Z,-3.7
2022-11-20T04:38:58.415Z,-3.6
2022-11-20T04:41:01.277Z,-3.6
2022-11-20T04:43:04.159Z,-3.7
2022-11-20T04:47:13.220Z,-3.7
2022-11-20T04:49:16.165Z,-3.7
2022-11-20T04:51:18.979Z,-3.7
2022-11-20T04:55:24.720Z,-3.7
2022-11-20T04:59:33.772Z,-3.9
2022-11-20T05:01:36.696Z,-3.9
2022-11-20T05:03:42.290Z,-4
2022-11-20T05:05:42.375Z,-4
2022-11-20T05:07:45.248Z,-4
2022-11-20T05:09:48.121Z,-4.1
2022-11-20T05:11:51.719Z,-4
2022-11-20T05:13:57.189Z,-4.1
2022-11-20T05:18:02.932Z,-4.1
2022-11-20T05:19:06.060Z,-4.1
2022-11-20T05:21:08.903Z,-4.1
2022-11-20T05:23:11.789Z,-4
2022-11-20T05:25:14.776Z,-4.1
2022-11-20T05:27:20.844Z,-4.1
2022-11-20T05:29:23.915Z,-4.1
2022-11-20T05:31:28.130Z,-4.1
2022-11-20T05:33:29.434Z,-4
2022-11-20T05:35:32.329Z,-4
2022-11-20T05:37:35.167Z,-3.9
2022-11-20T05:39:38.036Z,-3.9
2022-11-20T05:41:44.224Z,-3.8
2022-11-20T05:45:49.946Z,-3.8
2022-11-20T05:47:52.813Z,-3.8
2022-11-20T05:49:55.664Z,-3.7
2022-11-20T05:51:58.512Z,-3.7
2022-11-20T05:54:01.360Z,-3.7
2022-11-20T05:56:07.589Z,-3.8
2022-11-20T05:58:10.432Z,-3.9
2022-11-20T06:00:13.319Z,-4
2022-11-20T06:02:16.246Z,-4
2022-11-20T06:04:19.056Z,-4
2022-11-20T06:06:21.922Z,-4
2022-11-20T06:08:24.786Z,-4.1
2022-11-20T06:10:31.003Z,-4.3
2022-11-20T06:12:33.849Z,-4.3
2022-11-20T06:14:36.720Z,-4.3
2022-11-20T06:15:39.817Z,-4.3
2022-11-20T06:17:42.686Z,-4.4
2022-11-20T06:21:48.399Z,-4.5
2022-11-20T06:23:54.637Z,-4.5
2022-11-20T06:25:57.519Z,-4.5
2022-11-20T06:28:00.462Z,-4.5
2022-11-20T06:30:03.214Z,-4.6
2022-11-20T06:32:06.037Z,-4.5
2022-11-20T06:34:08.916Z,-4.5
2022-11-20T06:36:11.756Z,-4.5
2022-11-20T06:38:17.963Z,-4.5
2022-11-20T06:40:20.842Z,-4.5
2022-11-20T06:42:23.673Z,-4.5
2022-11-20T06:44:26.497Z,-4.5
2022-11-20T06:46:29.361Z,-4.5
2022-11-20T06:48:32.213Z,-4.5
2022-11-20T06:50:35.053Z,-4.4
2022-11-20T06:52:43.752Z,-4.4
2022-11-20T06:54:44.137Z,-4.5
2022-11-20T06:56:47.025Z,-4.5
2022-11-20T06:58:49.805Z,-4.5
2022-11-20T07:00:52.780Z,-4.5
2022-11-20T07:02:55.485Z,-4.4
2022-11-20T07:04:58.357Z,-4.4
2022-11-20T07:07:04.626Z,-4.4
2022-11-20T07:09:11.359Z,-4.4
2022-11-20T07:11:10.245Z,-4.4
2022-11-20T07:13:32.483Z,-4.3
2022-11-20T07:19:44.341Z,-4.3
2022-11-20T07:21:47.196Z,-4.3
2022-11-20T07:25:52.862Z,-4.3
2022-11-20T07:27:55.722Z,-4.3
2022-11-20T07:29:58.570Z,-4.2
2022-11-20T07:34:07.630Z,-4.2
2022-11-20T07:36:10.470Z,-4.1
2022-11-20T07:38:13.311Z,-4
2022-11-20T07:40:16.142Z,-4
2022-11-20T07:46:24.649Z,-3.7
2022-11-20T07:50:33.639Z,-3.7
2022-11-20T07:52:36.486Z,-3.6
2022-11-20T07:56:42.179Z,-3.5
2022-11-20T07:58:45.029Z,-3.4
2022-11-20T08:02:54.069Z,-3.2
2022-11-20T08:06:59.789Z,-3.1
2022-11-20T08:08:02.836Z,-3
2022-11-20T08:10:05.716Z,-2.8
2022-11-20T08:12:08.563Z,-1.7
2022-11-20T08:14:11.422Z,0
2022-11-20T08:16:17.640Z,1.6
2022-11-20T08:18:31.766Z,1.9
2022-11-20T08:20:23.408Z,1.9
2022-11-20T08:22:26.279Z,1.7
2022-11-20T08:24:29.169Z,1.2
2022-11-20T08:28:34.950Z,-0.4
2022-11-20T08:32:44.110Z,-0.9
2022-11-20T08:34:47.006Z,-1.1
2022-11-20T08:36:49.917Z,-1.1
2022-11-20T08:38:52.834Z,-0.7
2022-11-20T08:40:55.778Z,-0.6
2022-11-20T08:42:58.716Z,-0.5
2022-11-20T08:45:04.966Z,-1
2022-11-20T08:47:09.513Z,-1.1
2022-11-20T08:49:12.409Z,-1.4
2022-11-20T08:51:15.314Z,-1.4
2022-11-20T08:53:18.279Z,-1.3
2022-11-20T08:55:21.233Z,-1.4
2022-11-20T08:57:24.137Z,-1.3
2022-11-20T09:00:03.934Z,-0.9
2022-11-20T09:04:39.413Z,-0.2
2022-11-20T09:06:42.372Z,0.2
2022-11-20T09:08:45.325Z,1.5
2022-11-20T09:10:48.290Z,1.2
2022-11-20T09:12:54.459Z,0.8
2022-11-20T09:14:57.461Z,1.4
2022-11-20T09:17:00.309Z,1.7
2022-11-20T09:19:28.623Z,2.6
2022-11-20T09:21:06.091Z,2.9
2022-11-20T09:23:08.937Z,3.2
2022-11-20T09:25:11.841Z,3.4
2022-11-20T09:27:17.991Z,1.2
2022-11-20T09:29:21.091Z,0.9
2022-11-20T09:31:23.836Z,0.5
2022-11-20T09:33:26.764Z,0.3
2022-11-20T09:35:29.732Z,0.2
2022-11-20T09:37:32.655Z,0.3
2022-11-20T09:39:35.592Z,0.4
2022-11-20T09:41:41.743Z,0.3
2022-11-20T09:43:44.691Z,0.4
2022-11-20T09:47:50.591Z,0.6
2022-11-20T09:49:53.540Z,0.5
2022-11-20T09:51:56.648Z,0.6
2022-11-20T09:53:59.452Z,0.5
2022-11-20T09:56:05.624Z,0.5
2022-11-20T09:58:08.588Z,0.5
2022-11-20T10:00:11.517Z,0.5
2022-11-20T10:05:20.578Z,0.7
2022-11-20T10:09:29.687Z,0.6
2022-11-20T10:13:35.602Z,0.6
2022-11-20T10:15:38.587Z,0.6
2022-11-20T10:17:41.548Z,0.8
2022-11-20T10:19:44.518Z,1
2022-11-20T10:21:47.467Z,1
2022-11-20T10:23:53.661Z,1.1
2022-11-20T10:25:56.594Z,1.2
2022-11-20T10:27:59.582Z,1.4
2022-11-20T10:30:02.679Z,1.4
2022-11-20T10:32:05.537Z,1.4
2022-11-20T10:34:12.685Z,1.5
2022-11-20T10:36:11.494Z,1.6
2022-11-20T10:38:17.632Z,1.7
2022-11-20T10:40:20.620Z,1.8
2022-11-20T10:42:23.604Z,1.8
2022-11-20T10:44:26.576Z,1.8
2022-11-20T10:46:29.553Z,1.8
2022-11-20T10:48:32.521Z,1.9
2022-11-20T10:50:35.515Z,2
2022-11-20T10:52:41.686Z,2.3
2022-11-20T10:54:44.686Z,2.4
2022-11-20T10:56:50.145Z,2.8
2022-11-20T10:59:11.677Z,4.5
2022-11-20T11:01:14.770Z,4.6
2022-11-20T11:09:29.913Z,4.9
2022-11-20T11:11:32.912Z,5.6
2022-11-20T11:15:38.942Z,5.2
2022-11-20T11:21:55.164Z,6.8
2022-11-20T11:23:55.607Z,7.3
2022-11-20T11:25:57.393Z,6.2
2022-11-20T11:28:00.452Z,4.7
2022-11-20T11:30:03.521Z,4
2022-11-20T11:32:06.561Z,3.6
2022-11-20T11:34:12.843Z,4
2022-11-20T11:36:15.870Z,4
2022-11-20T11:38:18.961Z,4.6
2022-11-20T11:40:24.242Z,4.2
2022-11-20T11:42:25.081Z,3.9
2022-11-20T11:44:28.147Z,3.6
2022-11-20T11:46:31.204Z,3.5
2022-11-20T11:48:37.466Z,3.2
2022-11-20T11:50:40.522Z,3.3
2022-11-20T11:52:43.561Z,3.4
2022-11-20T11:53:46.700Z,3.2
2022-11-20T11:55:49.780Z,3.2
2022-11-20T11:57:52.815Z,3.4
2022-11-20T11:59:55.880Z,3.4
2022-11-20T12:02:02.226Z,3.4
2022-11-20T12:04:05.181Z,3.3
2022-11-20T12:06:08.239Z,3.4
2022-11-20T12:08:12.709Z,3.3
2022-11-20T12:10:14.345Z,3.3
2022-11-20T12:12:17.378Z,3.4
2022-11-20T12:14:20.405Z,3.3
2022-11-20T12:16:26.644Z,3.3
2022-11-20T12:18:29.727Z,3.1
2022-11-20T12:20:32.752Z,3.1
2022-11-20T12:22:35.796Z,3
2022-11-20T12:24:38.861Z,3.2
2022-11-20T12:26:41.854Z,3.1
2022-11-20T12:28:44.897Z,3.1
2022-11-20T12:37:00.258Z,2.9
2022-11-20T12:39:03.284Z,2.9
2022-11-20T12:41:06.302Z,2.9
2022-11-20T12:43:09.328Z,2.9
2022-11-20T12:45:15.611Z,2.8
2022-11-20T12:47:18.637Z,2.9
2022-11-20T12:49:21.945Z,2.7
2022-11-20T12:50:24.787Z,2.7
2022-11-20T12:52:27.808Z,2.7
2022-11-20T12:54:30.834Z,2.7
2022-11-20T12:56:34.037Z,2.7
2022-11-20T12:58:40.110Z,2.5
2022-11-20T13:00:43.136Z,2.5
2022-11-20T13:02:46.160Z,2.5
2022-11-20T13:04:49.178Z,2.4
2022-11-20T13:06:52.206Z,2.3
2022-11-20T13:08:55.214Z,2.4
2022-11-20T13:13:04.477Z,2.5
2022-11-20T13:17:10.489Z,2.4
2022-11-20T13:19:13.524Z,2.3
2022-11-20T13:21:16.517Z,2.3
2022-11-20T13:23:19.522Z,2.4
2022-11-20T13:25:22.527Z,2.3
2022-11-20T13:27:28.736Z,2.3
2022-11-20T13:29:31.745Z,2.2
2022-11-20T13:31:34.747Z,2.2
2022-11-20T13:33:37.749Z,2.2
2022-11-20T13:35:40.767Z,2.1
2022-11-20T13:37:43.759Z,2
2022-11-20T13:39:46.761Z,2.2
2022-11-20T13:41:52.951Z,2.1
2022-11-20T13:43:55.977Z,2.1
2022-11-20T13:45:58.960Z,2.2
2022-11-20T13:49:05.059Z,2.1
2022-11-20T13:53:11.032Z,2.2
2022-11-20T13:57:20.137Z,2.1
2022-11-20T14:05:32.097Z,2.2
2022-11-20T14:07:35.132Z,2.3
2022-11-20T14:09:41.279Z,2.2
2022-11-20T14:11:44.284Z,2.2
2022-11-20T14:13:47.279Z,2.2
2022-11-20T14:15:50.248Z,2.2
2022-11-20T14:17:53.228Z,2.2
2022-11-20T14:19:56.229Z,2.3
2022-11-20T14:21:59.226Z,2.2
2022-11-20T14:24:05.432Z,2.2
2022-11-20T14:26:08.419Z,2.2
2022-11-20T14:28:11.420Z,2.1
2022-11-20T14:30:14.394Z,2.2
2022-11-20T14:32:17.382Z,2.2
2022-11-20T14:34:20.814Z,2.2
2022-11-20T14:36:23.376Z,2.1
2022-11-20T14:38:29.571Z,2.1
2022-11-20T14:40:32.547Z,2.1
2022-11-20T14:42:37.169Z,2.1
2022-11-20T14:45:07.105Z,2.2
2022-11-20T14:47:10.100Z,2.2
2022-11-20T14:49:13.087Z,2.2
2022-11-20T14:59:31.232Z,2.2
2022-11-20T15:01:34.215Z,2.2
2022-11-20T15:11:52.373Z,2.2
2022-11-20T15:13:55.351Z,2.2
2022-11-20T15:15:58.350Z,2.2
2022-11-20T15:18:01.333Z,2.2
2022-11-20T15:20:07.530Z,2.3
2022-11-20T15:22:10.520Z,2.2
2022-11-20T15:24:13.521Z,2.2
2022-11-20T15:26:19.788Z,2.2
2022-11-20T15:28:19.504Z,2.2
2022-11-20T15:30:22.494Z,2.2
2022-11-20T15:32:25.463Z,2.3
2022-11-20T15:34:31.727Z,2.3
2022-11-20T15:36:34.696Z,2.2
2022-11-20T15:38:37.671Z,2.2
2022-11-20T15:41:43.761Z,2.2
2022-11-20T15:43:46.747Z,2.3
2022-11-20T15:45:49.718Z,2.4
2022-11-20T15:52:01.923Z,2.3
2022-11-20T15:54:04.906Z,2.3
2022-11-20T15:58:10.910Z,2.3
2022-11-20T16:02:20.091Z,2.2
2022-11-20T16:04:23.316Z,2.2
2022-11-20T16:06:26.080Z,2.3
2022-11-20T16:08:29.112Z,2.3
2022-11-20T16:10:32.073Z,2.4
2022-11-20T16:12:35.084Z,2.3
2022-11-20T16:14:38.082Z,2.3
2022-11-20T16:16:44.292Z,2.3
2022-11-20T16:18:47.295Z,2.3
2022-11-20T16:20:50.284Z,2.2
2022-11-20T16:22:53.285Z,2.3
2022-11-20T16:24:56.323Z,2.3
2022-11-20T16:26:59.348Z,2.3
2022-11-20T16:29:02.314Z,2.4
2022-11-20T16:31:08.523Z,2.4
2022-11-20T16:33:11.541Z,2.3
2022-11-20T16:38:20.668Z,2.4
2022-11-20T16:42:26.693Z,2.4
2022-11-20T16:44:32.910Z,2.3
2022-11-20T16:46:35.910Z,2.4
2022-11-20T16:48:38.941Z,2.4
2022-11-20T16:50:41.967Z,2.3
2022-11-20T16:52:44.965Z,2.4
2022-11-20T16:54:47.990Z,2.3
2022-11-20T16:56:51.018Z,2.3
2022-11-20T16:58:57.228Z,2.3
2022-11-20T17:03:03.257Z,2.3
2022-11-20T17:09:12.274Z,2.4
2022-11-20T17:11:15.286Z,2.3
2022-11-20T17:13:21.530Z,2.3
2022-11-20T17:19:30.569Z,2.3
2022-11-20T17:21:33.568Z,2.3
2022-11-20T17:23:36.593Z,2.3
2022-11-20T17:25:39.592Z,2.3
2022-11-20T17:27:45.818Z,2.4
2022-11-20T17:29:48.873Z,2.3
2022-11-20T17:31:51.878Z,2.4
2022-11-20T17:32:54.964Z,2.3
2022-11-20T17:34:57.981Z,2.4
2022-11-20T17:37:00.999Z,2.3
2022-11-20T17:39:04.010Z,2.4
2022-11-20T17:41:10.269Z,2.3
2022-11-20T17:45:16.284Z,2.3
2022-11-20T17:47:19.292Z,2.4
2022-11-20T17:49:24.049Z,2.5
2022-11-20T17:55:34.558Z,2.4
2022-11-20T17:57:37.562Z,2.4
2022-11-20T17:59:40.578Z,2.4
2022-11-20T18:01:43.693Z,2.3
2022-11-20T18:03:46.598Z,2.4
2022-11-20T18:05:49.600Z,2.4
2022-11-20T18:07:52.692Z,2.4
2022-11-20T18:14:04.848Z,2.4
2022-11-20T18:16:07.854Z,2.4
2022-11-20T18:18:10.861Z,2.4
2022-11-20T18:20:30.496Z,2.4
2022-11-20T18:22:16.894Z,2.4
2022-11-20T18:24:23.400Z,2.4
2022-11-20T18:26:26.115Z,2.4
2022-11-20T18:30:59.097Z,2.5
2022-11-20T18:33:02.126Z,2.4
2022-11-20T18:35:05.127Z,2.5
2022-11-20T18:37:11.368Z,2.4
2022-11-20T18:39:14.360Z,2.4
2022-11-20T18:41:17.356Z,2.5
2022-11-20T18:43:20.445Z,2.5
2022-11-20T18:45:23.367Z,2.6
2022-11-20T18:47:26.409Z,2.4
2022-11-20T18:49:29.448Z,2.5
2022-11-20T18:51:35.637Z,2.5
2022-11-20T18:53:40.902Z,2.5
2022-11-20T18:55:41.638Z,2.5
2022-11-20T18:57:44.670Z,2.4
2022-11-20T18:59:47.686Z,2.5
2022-11-20T19:01:50.747Z,2.4
2022-11-20T19:03:53.702Z,2.5
2022-11-20T19:05:59.924Z,2.5
2022-11-20T19:08:02.926Z,2.5
2022-11-20T19:12:08.974Z,2.4
2022-11-20T19:14:11.972Z,2.5
2022-11-20T19:16:14.978Z,2.4
2022-11-20T19:20:24.205Z,2.5
2022-11-20T19:22:27.211Z,2.4
2022-11-20T19:24:30.261Z,2.5
2022-11-20T19:25:37.919Z,2.5
2022-11-20T19:27:36.377Z,2.4
2022-11-20T19:29:39.371Z,2.4
2022-11-20T19:31:42.373Z,2.4
2022-11-20T19:33:48.603Z,2.4
2022-11-20T19:35:51.622Z,2.4
2022-11-20T19:37:54.692Z,2.4
2022-11-20T19:39:57.693Z,2.4
2022-11-20T19:42:00.663Z,2.4
2022-11-20T19:44:03.670Z,2.5
2022-11-20T19:46:06.687Z,2.4
2022-11-20T19:48:12.930Z,2.4
2022-11-20T19:50:15.940Z,2.4
2022-11-20T19:52:18.958Z,2.5
2022-11-20T19:54:21.950Z,2.4
2022-11-20T19:56:24.941Z,2.4
2022-11-20T19:58:27.981Z,2.4
2022-11-20T20:00:32.759Z,2.4
2022-11-20T20:02:37.196Z,2.3
2022-11-20T20:04:40.209Z,2.4
2022-11-20T20:06:43.221Z,2.3
2022-11-20T20:08:46.207Z,2.4
2022-11-20T20:10:49.204Z,2.3
2022-11-20T20:12:52.218Z,2.4
2022-11-20T20:14:55.262Z,2.3
2022-11-20T20:17:01.461Z,2.3
2022-11-20T20:19:04.469Z,2.3
2022-11-20T20:21:07.456Z,2.2
2022-11-20T20:22:10.557Z,2.2
2022-11-20T20:24:13.589Z,2.2
2022-11-20T20:26:16.583Z,2.3
2022-11-20T20:28:19.605Z,2.3
2022-11-20T20:30:25.781Z,2.2
2022-11-20T20:34:31.811Z,2.2
2022-11-20T20:36:34.819Z,2.2
2022-11-20T20:38:39.426Z,2.2
2022-11-20T20:40:42.345Z,2.1
2022-11-20T20:42:45.358Z,2.1
2022-11-20T20:44:51.568Z,2.2
2022-11-20T20:46:54.595Z,2.1
2022-11-20T20:48:57.568Z,2.1
2022-11-20T20:51:00.576Z,2.2
2022-11-20T20:53:03.566Z,2.2
2022-11-20T20:55:06.545Z,2.1
2022-11-20T20:57:09.692Z,2
2022-11-20T21:03:21.773Z,2.2
2022-11-20T21:05:24.759Z,2.2
2022-11-20T21:07:27.799Z,2.2
2022-11-20T21:09:30.743Z,2
2022-11-20T21:11:33.746Z,2.2
2022-11-20T21:13:39.945Z,2.1
2022-11-20T21:15:42.945Z,2.1
2022-11-20T21:20:52.059Z,2.2
2022-11-20T21:22:55.045Z,2.2
2022-11-20T21:24:58.047Z,2.2
2022-11-20T21:27:04.270Z,2.1
2022-11-20T21:29:07.267Z,2.2
2022-11-20T21:31:10.305Z,2.1
2022-11-20T21:35:16.250Z,2
2022-11-20T21:37:19.247Z,2.2
2022-11-20T21:39:22.237Z,2.1
2022-11-20T21:41:28.468Z,2
2022-11-20T21:43:31.468Z,2
2022-11-20T21:45:34.460Z,2.1
2022-11-20T21:47:37.439Z,2.1
2022-11-20T21:49:40.448Z,2.1
2022-11-20T21:51:43.431Z,2
2022-11-20T21:53:46.436Z,2
2022-11-20T21:55:52.669Z,2
2022-11-20T21:57:55.646Z,2
2022-11-20T21:59:58.650Z,2
2022-11-20T22:02:01.718Z,2.1
2022-11-20T22:04:04.634Z,2.1
2022-11-20T22:06:07.646Z,2
2022-11-20T22:08:10.653Z,2
2022-11-20T22:10:18.612Z,2
2022-11-20T22:12:19.830Z,1.9
2022-11-20T22:14:23.767Z,2
2022-11-20T22:16:46.951Z,1.8
2022-11-20T22:18:49.866Z,1.9
2022-11-20T22:20:52.909Z,1.9
2022-11-20T22:22:59.115Z,1.8
2022-11-20T22:25:02.092Z,1.8
2022-11-20T22:27:05.097Z,1.9
2022-11-20T22:29:08.102Z,2
2022-11-20T22:31:11.082Z,2
2022-11-20T22:33:14.168Z,2
2022-11-20T22:35:17.075Z,2
2022-11-20T22:39:26.261Z,2
2022-11-20T22:43:32.259Z,1.9
2022-11-20T22:45:35.260Z,1.9
2022-11-20T22:49:41.242Z,1.9
2022-11-20T22:53:50.432Z,1.8
2022-11-20T22:55:53.436Z,1.8
2022-11-20T23:02:02.427Z,1.9
2022-11-20T23:04:05.395Z,1.9
2022-11-20T23:06:11.611Z,1.8
2022-11-20T23:10:17.608Z,1.8
2022-11-20T23:11:20.697Z,1.9
2022-11-20T23:13:23.732Z,1.8
2022-11-20T23:19:35.868Z,1.7
2022-11-20T23:21:38.848Z,1.7
2022-11-20T23:23:41.850Z,1.7
2022-11-20T23:25:44.841Z,1.8
2022-11-20T23:27:47.818Z,1.8
2022-11-20T23:29:50.782Z,1.8
2022-11-20T23:31:53.815Z,1.9
2022-11-20T23:34:00.057Z,1.7
2022-11-20T23:36:02.989Z,1.7
2022-11-20T23:38:06.003Z,1.7
2022-11-20T23:40:08.997Z,1.6
2022-11-20T23:42:11.984Z,1.7
2022-11-20T23:44:14.942Z,1.7
2022-11-20T23:46:17.924Z,1.7
2022-11-20T23:48:24.142Z,1.7
2022-11-20T23:54:33.092Z,1.6
2022-11-20T23:56:36.093Z,1.6
